Moosomin, Canada
Current Conditions -  °F | °C
As of 12:16 PM on Sunday 23 Nov 2014 (Local Time) from CYBR Reporting Station
Light Snow Light Snow  
Wind Chill: -1°   Ceiling: 1600
Heat Index: 14°   Visibility: 8mi
Dew Point: 10°   Wind: 14mph
Humidity: 86%   Direction: 340°NNW
Pressure: 29.56"   Gusts: NA
Location:  50.15°N, 101.67°W
Report Text: CYBR 231816Z 34012KT 8SM -FZDZ -SN BKN016 OVC020 M10/M12 A2956 RMK SC6SC2 SLP038
Loading
Personal Weather Stations






























Interactive Weather Map New forecast layout! Learn more

10-Day Weather Forecast

Advertisements
Track Severe Weather on mobile